LIRQLOWS

Guest
Details From LIRQ - Firenze
To LOWS - Salzburg Maxglan
Flight Number -
Tags Generated
Created
Modified
Stats Distance 253 nm / 469 km
Max Altitude 0 ft / 0 m
Waypoints 3
Social Downloads 0
Likes 0
Share VATSIM

Download

Looking for another format? Having issues loading an existing format? Contact us
Advertisement - Login to hide

Notes

Generated

Route

LIRQ SI LOWS

ID Type Via Altitude Latitude Longitude Leg Dist Tot Dist Heading (true) Name
O LIRQ APT - 0 ft / 0 m 43.80507˚ 11.19741˚ - 0 nm - -
SI NDB - 0 ft / 0 m 47.81861˚ 12.98769˚ 252 nm 252 nm 17° / 18° SALZBURG NDB
O LOWS APT - 0 ft / 0 m 47.80472˚ 12.99717˚ 0 nm 253 nm 155° / 155° -

Altitude Profile

Advertisement - Login to hide

Weather


0- 5 10 15 20 25 30 35+ Temperature / ° C

Clouds and Precipitation
Forecast for 2018-05-20 18:00 UTC. Updated an hour ago

Ground ~20,000 ft ~40,000 ft Winds

LIRQ

Details ICAO LIRQ (FLR)
Name Firenze
Region Italy
Timezone Europe/Rome (UTC+2.0)
Stats Elevation 142 ft / 43 m (AMSL)
Location 43.809984° 11.205118°
Runways 1
Magnetic Variation 2.922° E

METAR

LIRQ 201550Z 06010KT 9999 FEW040 SCT060 22/14 Q1012

Decode

TAF

TAF AMD LIRQ 201337Z 2013/2112 04006KT 9999 SCT050 TEMPO 2013/2018 4000 TSRA TEMPO 2109/2112 4000 TSRA

Decode

Departure Runways

ID Width Length Bearing (true) Bearing (mag) Surface Threshold Offset Overrun Length
05 98 ft / 30 m 5,420 ft / 1,652 m 48.52° 45.60° Asphalt 492 ft / 150 m 0 ft / 0 m
23 98 ft / 30 m 5,420 ft / 1,652 m 228.53° 225.61° Asphalt 2,287 ft / 697 m 0 ft / 0 m

LOWS

Details ICAO LOWS (SZG)
Name Salzburg Maxglan
Region Austria
Timezone Europe/Vienna (UTC+2.0)
Stats Elevation 1,411 ft / 430 m (AMSL)
Location 47.793333° 13.004333°
Runways 1
Magnetic Variation 3.479° E

METAR

LOWS 201550Z 16004KT 110V200 9999 FEW040 SCT080 BKN170 20/11 Q1017 NOSIG

Decode

TAF

TAF LOWS 201115Z 2012/2112 01007KT 9999 FEW050 SCT120 BKN300 TX23/2112Z TN10/2104Z TEMPO 2012/2017 06010G20KT SHRA FEW040TCU BKN060 PROB30 TEMPO 2013/2017 TSRA FEW040CB BKN050 BECMG 2019/2021 15005KT CAVOK BECMG 2106/2108 04007KT 9999 FEW060

Decode

Destination Runways

ID Width Length Bearing (true) Bearing (mag) Surface Threshold Offset Overrun Length
16 148 ft / 45 m 9,024 ft / 2,751 m 157.08° 153.60° Concrete 656 ft / 200 m 0 ft / 0 m
34 148 ft / 45 m 9,024 ft / 2,751 m 337.09° 333.61° Concrete 787 ft / 240 m 0 ft / 0 m

Approach Navaids

Runway Type Ident Frequency Range Bearing (true) Bearing (mag) Slope Elevation
16 Localiser OES 109.90 MHz 18 nm / 33 km 157.53° 154.06° - 1,411 ft / 430 m (AMSL)
16 Glidescope OES 109.90 MHz 10 nm / 19 km 157.09° 153.61° 3.00° 1,446 ft / 441 m (AMSL)
16 DME OES 109.90 MHz 18 nm / 33 km - - - 1,446 ft / 441 m (AMSL)

Popular Alternatives